sensor_id;sensor_type;location;lat;lon;timestamp;temperature;humidity
27803;DHT22;15182;48.174;11.562;2023-12-20T00:00:40;10.90;76.90
27803;DHT22;15182;48.174;11.562;2023-12-20T00:03:08;10.90;76.90
27803;DHT22;15182;48.174;11.562;2023-12-20T00:05:35;10.90;77.10
27803;DHT22;15182;48.174;11.562;2023-12-20T00:08:07;10.90;77.30
27803;DHT22;15182;48.174;11.562;2023-12-20T00:10:35;10.90;77.30
27803;DHT22;15182;48.174;11.562;2023-12-20T00:13:03;10.80;77.30
27803;DHT22;15182;48.174;11.562;2023-12-20T00:15:32;10.80;77.30
27803;DHT22;15182;48.174;11.562;2023-12-20T00:18:00;10.80;77.40
27803;DHT22;15182;48.174;11.562;2023-12-20T00:20:28;10.90;77.70
27803;DHT22;15182;48.174;11.562;2023-12-20T00:22:57;10.80;77.70
27803;DHT22;15182;48.174;11.562;2023-12-20T00:25:25;10.90;77.80
27803;DHT22;15182;48.174;11.562;2023-12-20T00:27:53;10.80;77.90
27803;DHT22;15182;48.174;11.562;2023-12-20T00:30:20;10.80;78.10
27803;DHT22;15182;48.174;11.562;2023-12-20T00:32:49;10.80;78.10
27803;DHT22;15182;48.174;11.562;2023-12-20T00:35:18;10.90;78.20
27803;DHT22;15182;48.174;11.562;2023-12-20T00:37:46;10.90;78.30
27803;DHT22;15182;48.174;11.562;2023-12-20T00:40:14;10.90;78.30
27803;DHT22;15182;48.174;11.562;2023-12-20T00:42:41;10.90;78.20
27803;DHT22;15182;48.174;11.562;2023-12-20T00:45:09;10.90;78.10
27803;DHT22;15182;48.174;11.562;2023-12-20T00:47:37;10.90;78.00
27803;DHT22;15182;48.174;11.562;2023-12-20T00:50:07;10.90;77.80
27803;DHT22;15182;48.174;11.562;2023-12-20T00:52:35;10.90;77.70
27803;DHT22;15182;48.174;11.562;2023-12-20T00:55:04;10.90;77.60
27803;DHT22;15182;48.174;11.562;2023-12-20T00:57:32;10.90;77.50
27803;DHT22;15182;48.174;11.562;2023-12-20T01:00:00;10.90;77.50
27803;DHT22;15182;48.174;11.562;2023-12-20T01:02:27;10.90;77.50
27803;DHT22;15182;48.174;11.562;2023-12-20T01:04:55;10.90;77.30
27803;DHT22;15182;48.174;11.562;2023-12-20T01:07:24;10.90;77.20
27803;DHT22;15182;48.174;11.562;2023-12-20T01:09:52;10.90;77.30
27803;DHT22;15182;48.174;11.562;2023-12-20T01:12:20;10.90;77.30
27803;DHT22;15182;48.174;11.562;2023-12-20T01:14:48;10.90;77.30
27803;DHT22;15182;48.174;11.562;2023-12-20T01:17:16;10.90;77.10
27803;DHT22;15182;48.174;11.562;2023-12-20T01:19:43;10.90;77.20
27803;DHT22;15182;48.174;11.562;2023-12-20T01:22:11;10.90;77.10
27803;DHT22;15182;48.174;11.562;2023-12-20T01:24:40;10.90;77.00
27803;DHT22;15182;48.174;11.562;2023-12-20T01:27:08;10.90;77.00
27803;DHT22;15182;48.174;11.562;2023-12-20T01:29:36;10.90;78.00
27803;DHT22;15182;48.174;11.562;2023-12-20T01:32:05;10.90;77.10
27803;DHT22;15182;48.174;11.562;2023-12-20T01:34:33;10.90;77.00
27803;DHT22;15182;48.174;11.562;2023-12-20T01:37:02;10.90;77.20
27803;DHT22;15182;48.174;11.562;2023-12-20T01:39:30;10.90;77.30
27803;DHT22;15182;48.174;11.562;2023-12-20T01:41:59;10.90;77.40
27803;DHT22;15182;48.174;11.562;2023-12-20T01:44:27;10.90;77.50
27803;DHT22;15182;48.174;11.562;2023-12-20T01:47:02;10.90;77.60
27803;DHT22;15182;48.174;11.562;2023-12-20T01:49:30;10.90;77.60
27803;DHT22;15182;48.174;11.562;2023-12-20T01:51:58;10.90;77.60
27803;DHT22;15182;48.174;11.562;2023-12-20T01:54:26;11.00;77.70
27803;DHT22;15182;48.174;11.562;2023-12-20T01:56:54;10.90;77.80
27803;DHT22;15182;48.174;11.562;2023-12-20T01:59:24;10.90;77.90
27803;DHT22;15182;48.174;11.562;2023-12-20T02:01:52;11.00;78.00
27803;DHT22;15182;48.174;11.562;2023-12-20T02:04:20;11.00;78.00
27803;DHT22;15182;48.174;11.562;2023-12-20T02:06:48;11.00;78.00
27803;DHT22;15182;48.174;11.562;2023-12-20T02:09:17;11.00;78.00
27803;DHT22;15182;48.174;11.562;2023-12-20T02:11:45;11.00;78.10
27803;DHT22;15182;48.174;11.562;2023-12-20T02:14:13;11.00;78.00
27803;DHT22;15182;48.174;11.562;2023-12-20T02:16:42;11.00;77.90
27803;DHT22;15182;48.174;11.562;2023-12-20T02:19:14;11.00;77.80
27803;DHT22;15182;48.174;11.562;2023-12-20T02:21:43;11.00;77.80
27803;DHT22;15182;48.174;11.562;2023-12-20T02:24:11;11.00;77.80
27803;DHT22;15182;48.174;11.562;2023-12-20T02:26:39;11.00;78.00
27803;DHT22;15182;48.174;11.562;2023-12-20T02:29:08;11.00;78.00
27803;DHT22;15182;48.174;11.562;2023-12-20T02:31:35;11.10;78.00
27803;DHT22;15182;48.174;11.562;2023-12-20T02:34:03;11.00;78.00
27803;DHT22;15182;48.174;11.562;2023-12-20T02:36:31;11.10;78.10
27803;DHT22;15182;48.174;11.562;2023-12-20T02:39:00;11.10;78.20
27803;DHT22;15182;48.174;11.562;2023-12-20T02:41:28;11.10;78.20
27803;DHT22;15182;48.174;11.562;2023-12-20T02:43:56;11.00;78.20
27803;DHT22;15182;48.174;11.562;2023-12-20T02:46:24;11.10;78.40
27803;DHT22;15182;48.174;11.562;2023-12-20T02:48:51;11.10;78.50
27803;DHT22;15182;48.174;11.562;2023-12-20T02:51:19;11.10;78.70
27803;DHT22;15182;48.174;11.562;2023-12-20T02:53:47;11.10;78.80
27803;DHT22;15182;48.174;11.562;2023-12-20T02:56:16;11.10;79.00
27803;DHT22;15182;48.174;11.562;2023-12-20T02:58:44;11.10;79.20
27803;DHT22;15182;48.174;11.562;2023-12-20T03:01:12;11.10;79.30
27803;DHT22;15182;48.174;11.562;2023-12-20T03:03:40;11.10;79.40
27803;DHT22;15182;48.174;11.562;2023-12-20T03:06:07;11.10;79.60
27803;DHT22;15182;48.174;11.562;2023-12-20T03:08:35;11.10;79.80
27803;DHT22;15182;48.174;11.562;2023-12-20T03:11:03;11.10;79.90
27803;DHT22;15182;48.174;11.562;2023-12-20T03:13:32;11.10;80.00
27803;DHT22;15182;48.174;11.562;2023-12-20T03:16:00;11.10;80.20
27803;DHT22;15182;48.174;11.562;2023-12-20T03:18:28;11.10;81.20
27803;DHT22;15182;48.174;11.562;2023-12-20T03:20:56;11.20;80.50
27803;DHT22;15182;48.174;11.562;2023-12-20T03:23:24;11.20;80.80
27803;DHT22;15182;48.174;11.562;2023-12-20T03:25:52;11.20;80.90
27803;DHT22;15182;48.174;11.562;2023-12-20T03:28:20;11.20;81.20
27803;DHT22;15182;48.174;11.562;2023-12-20T03:30:50;11.10;81.30
27803;DHT22;15182;48.174;11.562;2023-12-20T03:33:18;11.10;81.60
27803;DHT22;15182;48.174;11.562;2023-12-20T03:35:46;11.20;81.70
27803;DHT22;15182;48.174;11.562;2023-12-20T03:38:14;11.20;81.80
27803;DHT22;15182;48.174;11.562;2023-12-20T03:40:42;11.20;82.10
27803;DHT22;15182;48.174;11.562;2023-12-20T03:43:10;11.20;82.20
27803;DHT22;15182;48.174;11.562;2023-12-20T03:45:37;11.20;82.40
27803;DHT22;15182;48.174;11.562;2023-12-20T03:48:07;11.20;82.60
27803;DHT22;15182;48.174;11.562;2023-12-20T03:50:35;11.20;82.80
27803;DHT22;15182;48.174;11.562;2023-12-20T03:53:03;11.20;82.90
27803;DHT22;15182;48.174;11.562;2023-12-20T03:55:31;11.20;83.10
27803;DHT22;15182;48.174;11.562;2023-12-20T03:57:59;11.20;83.30
27803;DHT22;15182;48.174;11.562;2023-12-20T04:00:26;11.30;84.40
27803;DHT22;15182;48.174;11.562;2023-12-20T04:02:54;11.30;83.80
27803;DHT22;15182;48.174;11.562;2023-12-20T04:05:23;11.30;84.20
27803;DHT22;15182;48.174;11.562;2023-12-20T04:07:51;11.20;84.50
27803;DHT22;15182;48.174;11.562;2023-12-20T04:10:19;11.20;84.60
27803;DHT22;15182;48.174;11.562;2023-12-20T04:12:47;11.20;84.90
27803;DHT22;15182;48.174;11.562;2023-12-20T04:15:15;11.20;85.30
27803;DHT22;15182;48.174;11.562;2023-12-20T04:17:42;11.20;85.50
27803;DHT22;15182;48.174;11.562;2023-12-20T04:20:10;11.20;85.90
27803;DHT22;15182;48.174;11.562;2023-12-20T04:22:40;11.20;86.20
27803;DHT22;15182;48.174;11.562;2023-12-20T04:25:08;11.20;86.60
27803;DHT22;15182;48.174;11.562;2023-12-20T04:27:36;11.10;86.80
27803;DHT22;15182;48.174;11.562;2023-12-20T04:30:05;11.10;87.00
27803;DHT22;15182;48.174;11.562;2023-12-20T04:32:34;11.10;87.20
27803;DHT22;15182;48.174;11.562;2023-12-20T04:35:02;11.10;87.50
27803;DHT22;15182;48.174;11.562;2023-12-20T04:37:30;11.10;87.70
27803;DHT22;15182;48.174;11.562;2023-12-20T04:39:59;11.10;87.90
27803;DHT22;15182;48.174;11.562;2023-12-20T04:42:27;11.00;88.20
27803;DHT22;15182;48.174;11.562;2023-12-20T04:44:55;11.00;88.40
27803;DHT22;15182;48.174;11.562;2023-12-20T04:47:24;11.00;88.60
27803;DHT22;15182;48.174;11.562;2023-12-20T04:49:52;11.00;88.90
27803;DHT22;15182;48.174;11.562;2023-12-20T04:52:20;11.00;89.30
27803;DHT22;15182;48.174;11.562;2023-12-20T04:54:47;11.00;89.60
27803;DHT22;15182;48.174;11.562;2023-12-20T04:57:17;10.90;89.90
27803;DHT22;15182;48.174;11.562;2023-12-20T04:59:45;10.90;90.10
27803;DHT22;15182;48.174;11.562;2023-12-20T05:02:12;10.90;90.20
27803;DHT22;15182;48.174;11.562;2023-12-20T05:04:40;10.90;90.40
27803;DHT22;15182;48.174;11.562;2023-12-20T05:07:08;10.90;90.50
27803;DHT22;15182;48.174;11.562;2023-12-20T05:09:36;10.80;90.70
27803;DHT22;15182;48.174;11.562;2023-12-20T05:12:05;10.80;90.90
27803;DHT22;15182;48.174;11.562;2023-12-20T05:14:34;10.70;91.00
27803;DHT22;15182;48.174;11.562;2023-12-20T05:17:02;10.70;91.20
27803;DHT22;15182;48.174;11.562;2023-12-20T05:19:30;10.70;91.30
27803;DHT22;15182;48.174;11.562;2023-12-20T05:22:01;10.60;91.40
27803;DHT22;15182;48.174;11.562;2023-12-20T05:24:29;10.60;91.50
27803;DHT22;15182;48.174;11.562;2023-12-20T05:26:57;10.60;91.50
27803;DHT22;15182;48.174;11.562;2023-12-20T05:29:24;10.60;92.10
27803;DHT22;15182;48.174;11.562;2023-12-20T05:31:54;10.50;91.80
27803;DHT22;15182;48.174;11.562;2023-12-20T05:34:21;10.50;92.10
27803;DHT22;15182;48.174;11.562;2023-12-20T05:36:49;10.50;92.10
27803;DHT22;15182;48.174;11.562;2023-12-20T05:39:17;10.40;92.20
27803;DHT22;15182;48.174;11.562;2023-12-20T05:41:45;10.40;92.20
27803;DHT22;15182;48.174;11.562;2023-12-20T05:44:13;10.40;92.40
27803;DHT22;15182;48.174;11.562;2023-12-20T05:46:41;10.40;92.90
27803;DHT22;15182;48.174;11.562;2023-12-20T05:49:10;10.30;92.60
27803;DHT22;15182;48.174;11.562;2023-12-20T05:51:38;10.30;92.80
27803;DHT22;15182;48.174;11.562;2023-12-20T05:54:06;10.30;92.70
27803;DHT22;15182;48.174;11.562;2023-12-20T05:56:33;10.30;92.80
27803;DHT22;15182;48.174;11.562;2023-12-20T05:59:01;10.30;92.80
27803;DHT22;15182;48.174;11.562;2023-12-20T06:01:29;10.30;93.00
27803;DHT22;15182;48.174;11.562;2023-12-20T06:03:57;10.20;93.00
27803;DHT22;15182;48.174;11.562;2023-12-20T06:06:26;10.20;93.00
27803;DHT22;15182;48.174;11.562;2023-12-20T06:08:54;10.20;93.20
27803;DHT22;15182;48.174;11.562;2023-12-20T06:11:22;10.20;93.20
27803;DHT22;15182;48.174;11.562;2023-12-20T06:13:50;10.20;93.20
27803;DHT22;15182;48.174;11.562;2023-12-20T06:16:18;10.10;93.50
27803;DHT22;15182;48.174;11.562;2023-12-20T06:18:46;10.10;93.30
27803;DHT22;15182;48.174;11.562;2023-12-20T06:21:14;10.10;93.40
27803;DHT22;15182;48.174;11.562;2023-12-20T06:23:43;10.00;93.50
27803;DHT22;15182;48.174;11.562;2023-12-20T06:26:11;10.00;93.60
27803;DHT22;15182;48.174;11.562;2023-12-20T06:28:39;10.00;93.50
27803;DHT22;15182;48.174;11.562;2023-12-20T06:31:06;10.00;93.60
27803;DHT22;15182;48.174;11.562;2023-12-20T06:33:34;9.90;93.60
27803;DHT22;15182;48.174;11.562;2023-12-20T06:36:04;9.90;93.60
27803;DHT22;15182;48.174;11.562;2023-12-20T06:38:32;9.90;93.80
27803;DHT22;15182;48.174;11.562;2023-12-20T06:41:01;9.80;93.80
27803;DHT22;15182;48.174;11.562;2023-12-20T06:43:29;9.80;93.90
27803;DHT22;15182;48.174;11.562;2023-12-20T06:45:57;9.80;93.90
27803;DHT22;15182;48.174;11.562;2023-12-20T06:48:25;9.80;94.00
27803;DHT22;15182;48.174;11.562;2023-12-20T06:50:52;9.80;94.00
27803;DHT22;15182;48.174;11.562;2023-12-20T06:53:20;9.80;94.00
27803;DHT22;15182;48.174;11.562;2023-12-20T06:55:48;9.80;94.10
27803;DHT22;15182;48.174;11.562;2023-12-20T06:58:17;9.70;94.10
27803;DHT22;15182;48.174;11.562;2023-12-20T07:00:45;9.70;94.20
27803;DHT22;15182;48.174;11.562;2023-12-20T07:03:13;9.70;94.30
27803;DHT22;15182;48.174;11.562;2023-12-20T07:05:41;9.70;94.30
27803;DHT22;15182;48.174;11.562;2023-12-20T07:08:09;9.70;94.40
27803;DHT22;15182;48.174;11.562;2023-12-20T07:10:37;9.60;94.40
27803;DHT22;15182;48.174;11.562;2023-12-20T07:13:05;9.60;94.50
27803;DHT22;15182;48.174;11.562;2023-12-20T07:15:35;9.60;94.50
27803;DHT22;15182;48.174;11.562;2023-12-20T07:18:04;9.60;94.60
27803;DHT22;15182;48.174;11.562;2023-12-20T07:20:32;9.60;94.60
27803;DHT22;15182;48.174;11.562;2023-12-20T07:23:00;9.60;94.60
27803;DHT22;15182;48.174;11.562;2023-12-20T07:25:28;9.60;94.60
27803;DHT22;15182;48.174;11.562;2023-12-20T07:27:58;9.60;94.70
27803;DHT22;15182;48.174;11.562;2023-12-20T07:30:26;9.60;94.60
27803;DHT22;15182;48.174;11.562;2023-12-20T07:32:55;9.50;94.60
27803;DHT22;15182;48.174;11.562;2023-12-20T07:35:23;9.50;94.80
27803;DHT22;15182;48.174;11.562;2023-12-20T07:37:51;9.50;94.70
27803;DHT22;15182;48.174;11.562;2023-12-20T07:40:19;9.50;94.70
27803;DHT22;15182;48.174;11.562;2023-12-20T07:42:47;9.50;94.80
27803;DHT22;15182;48.174;11.562;2023-12-20T07:45:15;9.50;94.80
27803;DHT22;15182;48.174;11.562;2023-12-20T07:47:42;9.50;94.90
27803;DHT22;15182;48.174;11.562;2023-12-20T07:50:12;9.50;94.90
27803;DHT22;15182;48.174;11.562;2023-12-20T07:52:39;9.50;95.00
27803;DHT22;15182;48.174;11.562;2023-12-20T07:55:08;9.50;94.90
27803;DHT22;15182;48.174;11.562;2023-12-20T07:57:36;9.50;95.00
27803;DHT22;15182;48.174;11.562;2023-12-20T08:00:05;9.50;95.00
27803;DHT22;15182;48.174;11.562;2023-12-20T08:02:33;9.50;95.10
27803;DHT22;15182;48.174;11.562;2023-12-20T08:05:01;9.50;95.10
27803;DHT22;15182;48.174;11.562;2023-12-20T08:07:30;9.50;95.10
27803;DHT22;15182;48.174;11.562;2023-12-20T08:09:59;9.50;95.20
27803;DHT22;15182;48.174;11.562;2023-12-20T08:12:27;9.50;95.20
27803;DHT22;15182;48.174;11.562;2023-12-20T08:14:54;9.50;95.20
27803;DHT22;15182;48.174;11.562;2023-12-20T08:17:23;9.50;95.20
27803;DHT22;15182;48.174;11.562;2023-12-20T08:19:51;9.50;95.20
27803;DHT22;15182;48.174;11.562;2023-12-20T08:22:19;9.40;95.20
27803;DHT22;15182;48.174;11.562;2023-12-20T08:24:48;9.40;95.60
27803;DHT22;15182;48.174;11.562;2023-12-20T08:27:15;9.40;95.30
27803;DHT22;15182;48.174;11.562;2023-12-20T08:29:44;9.40;95.30
27803;DHT22;15182;48.174;11.562;2023-12-20T08:32:11;9.40;95.40
27803;DHT22;15182;48.174;11.562;2023-12-20T08:34:39;9.40;95.40
27803;DHT22;15182;48.174;11.562;2023-12-20T08:37:07;9.40;95.40
27803;DHT22;15182;48.174;11.562;2023-12-20T08:39:35;9.40;95.50
27803;DHT22;15182;48.174;11.562;2023-12-20T08:42:04;9.40;95.50
27803;DHT22;15182;48.174;11.562;2023-12-20T08:44:32;9.40;95.70
27803;DHT22;15182;48.174;11.562;2023-12-20T08:47:00;9.40;95.60
27803;DHT22;15182;48.174;11.562;2023-12-20T08:49:28;9.40;95.60
27803;DHT22;15182;48.174;11.562;2023-12-20T08:51:55;9.30;95.60
27803;DHT22;15182;48.174;11.562;2023-12-20T08:54:23;9.30;95.60
27803;DHT22;15182;48.174;11.562;2023-12-20T08:56:51;9.30;95.70
27803;DHT22;15182;48.174;11.562;2023-12-20T08:59:20;9.30;95.80
27803;DHT22;15182;48.174;11.562;2023-12-20T09:01:48;9.30;95.90
27803;DHT22;15182;48.174;11.562;2023-12-20T09:04:21;9.30;95.90
27803;DHT22;15182;48.174;11.562;2023-12-20T09:06:48;9.40;95.90
27803;DHT22;15182;48.174;11.562;2023-12-20T09:09:16;9.30;95.90
27803;DHT22;15182;48.174;11.562;2023-12-20T09:11:44;9.40;96.00
27803;DHT22;15182;48.174;11.562;2023-12-20T09:14:14;9.40;96.40
27803;DHT22;15182;48.174;11.562;2023-12-20T09:16:43;9.40;96.10
27803;DHT22;15182;48.174;11.562;2023-12-20T09:19:11;9.40;96.10
27803;DHT22;15182;48.174;11.562;2023-12-20T09:21:39;9.40;96.10
27803;DHT22;15182;48.174;11.562;2023-12-20T09:24:07;9.40;96.10
27803;DHT22;15182;48.174;11.562;2023-12-20T09:26:35;9.40;96.20
27803;DHT22;15182;48.174;11.562;2023-12-20T09:29:03;9.50;96.20
27803;DHT22;15182;48.174;11.562;2023-12-20T09:31:31;9.50;96.20
27803;DHT22;15182;48.174;11.562;2023-12-20T09:34:00;9.50;96.20
27803;DHT22;15182;48.174;11.562;2023-12-20T09:36:29;9.50;96.30
27803;DHT22;15182;48.174;11.562;2023-12-20T09:39:00;9.50;96.20
27803;DHT22;15182;48.174;11.562;2023-12-20T09:41:31;9.50;96.20
27803;DHT22;15182;48.174;11.562;2023-12-20T09:44:02;9.50;96.30
27803;DHT22;15182;48.174;11.562;2023-12-20T09:46:32;9.60;96.30
27803;DHT22;15182;48.174;11.562;2023-12-20T09:49:04;9.60;96.30
27803;DHT22;15182;48.174;11.562;2023-12-20T09:51:32;9.60;96.30
27803;DHT22;15182;48.174;11.562;2023-12-20T09:54:03;9.60;96.20
27803;DHT22;15182;48.174;11.562;2023-12-20T09:56:31;9.60;96.30
27803;DHT22;15182;48.174;11.562;2023-12-20T09:58:59;9.60;96.20
27803;DHT22;15182;48.174;11.562;2023-12-20T10:01:28;9.60;96.30
27803;DHT22;15182;48.174;11.562;2023-12-20T10:03:57;9.60;96.70
27803;DHT22;15182;48.174;11.562;2023-12-20T10:06:29;9.60;96.40
27803;DHT22;15182;48.174;11.562;2023-12-20T10:08:57;9.60;96.40
27803;DHT22;15182;48.174;11.562;2023-12-20T10:11:25;9.60;96.40
27803;DHT22;15182;48.174;11.562;2023-12-20T10:13:59;9.60;96.50
27803;DHT22;15182;48.174;11.562;2023-12-20T10:16:28;9.60;96.70
27803;DHT22;15182;48.174;11.562;2023-12-20T10:18:57;9.70;96.60
27803;DHT22;15182;48.174;11.562;2023-12-20T10:21:25;9.70;96.70
27803;DHT22;15182;48.174;11.562;2023-12-20T10:23:55;9.70;96.70
27803;DHT22;15182;48.174;11.562;2023-12-20T10:26:24;9.80;96.80
27803;DHT22;15182;48.174;11.562;2023-12-20T10:28:54;9.80;96.80
27803;DHT22;15182;48.174;11.562;2023-12-20T10:31:26;9.90;96.90
27803;DHT22;15182;48.174;11.562;2023-12-20T10:33:56;9.90;97.00
27803;DHT22;15182;48.174;11.562;2023-12-20T10:36:26;9.90;96.90
27803;DHT22;15182;48.174;11.562;2023-12-20T10:38:57;10.00;97.00
27803;DHT22;15182;48.174;11.562;2023-12-20T10:41:26;10.00;97.00
27803;DHT22;15182;48.174;11.562;2023-12-20T10:43:56;10.00;96.90
27803;DHT22;15182;48.174;11.562;2023-12-20T10:46:30;10.00;96.90
27803;DHT22;15182;48.174;11.562;2023-12-20T10:48:58;10.10;96.80
27803;DHT22;15182;48.174;11.562;2023-12-20T10:51:26;10.10;96.80
27803;DHT22;15182;48.174;11.562;2023-12-20T10:53:57;10.10;96.70
27803;DHT22;15182;48.174;11.562;2023-12-20T10:56:29;10.10;96.80
27803;DHT22;15182;48.174;11.562;2023-12-20T10:59:01;10.10;96.90
27803;DHT22;15182;48.174;11.562;2023-12-20T11:01:31;10.10;96.80
27803;DHT22;15182;48.174;11.562;2023-12-20T11:04:00;10.10;96.70
27803;DHT22;15182;48.174;11.562;2023-12-20T11:06:35;10.00;96.80
27803;DHT22;15182;48.174;11.562;2023-12-20T11:09:17;10.00;96.90
27803;DHT22;15182;48.174;11.562;2023-12-20T11:11:58;10.00;97.00
27803;DHT22;15182;48.174;11.562;2023-12-20T11:14:34;10.00;97.00
27803;DHT22;15182;48.174;11.562;2023-12-20T11:17:07;10.00;96.90
27803;DHT22;15182;48.174;11.562;2023-12-20T11:22:34;10.00;97.00
27803;DHT22;15182;48.174;11.562;2023-12-20T11:25:06;10.00;96.80
27803;DHT22;15182;48.174;11.562;2023-12-20T11:27:35;10.00;96.90
27803;DHT22;15182;48.174;11.562;2023-12-20T11:30:04;10.00;97.20
27803;DHT22;15182;48.174;11.562;2023-12-20T11:32:35;10.10;96.90
27803;DHT22;15182;48.174;11.562;2023-12-20T11:35:17;10.10;97.00
27803;DHT22;15182;48.174;11.562;2023-12-20T11:37:46;10.10;97.20
27803;DHT22;15182;48.174;11.562;2023-12-20T11:40:16;10.10;97.20
27803;DHT22;15182;48.174;11.562;2023-12-20T11:42:48;10.10;97.00
27803;DHT22;15182;48.174;11.562;2023-12-20T11:45:18;10.10;97.20
27803;DHT22;15182;48.174;11.562;2023-12-20T11:47:49;10.20;96.80
27803;DHT22;15182;48.174;11.562;2023-12-20T11:50:18;10.20;96.80
27803;DHT22;15182;48.174;11.562;2023-12-20T11:52:46;10.20;96.80
27803;DHT22;15182;48.174;11.562;2023-12-20T11:55:15;10.20;96.70
27803;DHT22;15182;48.174;11.562;2023-12-20T11:57:43;10.20;96.70
27803;DHT22;15182;48.174;11.562;2023-12-20T12:00:13;10.20;96.70
27803;DHT22;15182;48.174;11.562;2023-12-20T12:02:42;10.20;96.70
27803;DHT22;15182;48.174;11.562;2023-12-20T12:05:10;10.20;96.70
27803;DHT22;15182;48.174;11.562;2023-12-20T12:07:38;10.30;96.70
27803;DHT22;15182;48.174;11.562;2023-12-20T12:10:07;10.30;96.70
27803;DHT22;15182;48.174;11.562;2023-12-20T12:12:36;10.30;96.70
27803;DHT22;15182;48.174;11.562;2023-12-20T12:15:05;10.30;97.00
27803;DHT22;15182;48.174;11.562;2023-12-20T12:17:34;10.30;96.70
27803;DHT22;15182;48.174;11.562;2023-12-20T12:20:03;10.30;96.70
27803;DHT22;15182;48.174;11.562;2023-12-20T12:22:32;10.30;96.60
27803;DHT22;15182;48.174;11.562;2023-12-20T12:25:09;10.40;96.60
27803;DHT22;15182;48.174;11.562;2023-12-20T12:27:41;10.40;96.70
27803;DHT22;15182;48.174;11.562;2023-12-20T12:30:10;10.40;96.60
27803;DHT22;15182;48.174;11.562;2023-12-20T12:32:39;10.40;96.50
27803;DHT22;15182;48.174;11.562;2023-12-20T12:35:08;10.40;96.40
27803;DHT22;15182;48.174;11.562;2023-12-20T12:37:38;10.40;96.30
27803;DHT22;15182;48.174;11.562;2023-12-20T12:40:09;10.40;96.30
27803;DHT22;15182;48.174;11.562;2023-12-20T12:42:37;10.40;96.30
27803;DHT22;15182;48.174;11.562;2023-12-20T12:45:08;10.40;96.30
27803;DHT22;15182;48.174;11.562;2023-12-20T12:47:38;10.50;96.30
27803;DHT22;15182;48.174;11.562;2023-12-20T12:50:07;10.50;96.30
27803;DHT22;15182;48.174;11.562;2023-12-20T12:52:35;10.50;96.30
27803;DHT22;15182;48.174;11.562;2023-12-20T12:55:04;10.50;96.30
27803;DHT22;15182;48.174;11.562;2023-12-20T12:57:33;10.50;96.30
27803;DHT22;15182;48.174;11.562;2023-12-20T13:00:01;10.50;96.30
27803;DHT22;15182;48.174;11.562;2023-12-20T13:02:30;10.50;96.20
27803;DHT22;15182;48.174;11.562;2023-12-20T13:04:58;10.40;96.20
27803;DHT22;15182;48.174;11.562;2023-12-20T13:07:27;10.40;96.20
27803;DHT22;15182;48.174;11.562;2023-12-20T13:09:55;10.40;96.20
27803;DHT22;15182;48.174;11.562;2023-12-20T13:12:23;10.40;96.20
27803;DHT22;15182;48.174;11.562;2023-12-20T13:14:50;10.40;96.10
27803;DHT22;15182;48.174;11.562;2023-12-20T13:17:19;10.30;96.10
27803;DHT22;15182;48.174;11.562;2023-12-20T13:19:49;10.30;96.10
27803;DHT22;15182;48.174;11.562;2023-12-20T13:22:17;10.30;96.00
27803;DHT22;15182;48.174;11.562;2023-12-20T13:24:44;10.20;96.00
27803;DHT22;15182;48.174;11.562;2023-12-20T13:27:12;10.20;96.00
27803;DHT22;15182;48.174;11.562;2023-12-20T13:29:40;10.10;96.00
27803;DHT22;15182;48.174;11.562;2023-12-20T13:32:08;10.10;96.00
27803;DHT22;15182;48.174;11.562;2023-12-20T13:34:36;10.10;96.00
27803;DHT22;15182;48.174;11.562;2023-12-20T13:37:05;10.10;96.00
27803;DHT22;15182;48.174;11.562;2023-12-20T13:39:33;10.10;95.90
27803;DHT22;15182;48.174;11.562;2023-12-20T13:42:01;10.00;95.90
27803;DHT22;15182;48.174;11.562;2023-12-20T13:44:29;10.10;95.90
27803;DHT22;15182;48.174;11.562;2023-12-20T13:46:57;10.10;95.90
27803;DHT22;15182;48.174;11.562;2023-12-20T13:49:25;10.10;95.90
27803;DHT22;15182;48.174;11.562;2023-12-20T13:51:54;10.10;95.80
27803;DHT22;15182;48.174;11.562;2023-12-20T13:54:24;10.00;95.70
27803;DHT22;15182;48.174;11.562;2023-12-20T13:56:52;10.00;95.70
27803;DHT22;15182;48.174;11.562;2023-12-20T13:59:19;10.00;95.70
27803;DHT22;15182;48.174;11.562;2023-12-20T14:01:47;10.00;95.70
27803;DHT22;15182;48.174;11.562;2023-12-20T14:04:16;10.00;95.70
27803;DHT22;15182;48.174;11.562;2023-12-20T14:06:44;10.00;95.60
27803;DHT22;15182;48.174;11.562;2023-12-20T14:09:12;10.00;95.60
27803;DHT22;15182;48.174;11.562;2023-12-20T14:11:42;10.00;95.60
27803;DHT22;15182;48.174;11.562;2023-12-20T14:14:10;10.00;95.60
27803;DHT22;15182;48.174;11.562;2023-12-20T14:16:38;10.00;95.50
27803;DHT22;15182;48.174;11.562;2023-12-20T14:19:06;10.00;95.50
27803;DHT22;15182;48.174;11.562;2023-12-20T14:21:35;10.00;95.50
27803;DHT22;15182;48.174;11.562;2023-12-20T14:24:04;10.00;95.50
27803;DHT22;15182;48.174;11.562;2023-12-20T14:26:32;10.00;95.50
27803;DHT22;15182;48.174;11.562;2023-12-20T14:29:01;10.00;95.40
27803;DHT22;15182;48.174;11.562;2023-12-20T14:31:30;10.00;95.30
27803;DHT22;15182;48.174;11.562;2023-12-20T14:33:58;10.00;95.30
27803;DHT22;15182;48.174;11.562;2023-12-20T14:36:27;10.00;95.30
27803;DHT22;15182;48.174;11.562;2023-12-20T14:38:56;9.90;95.20
27803;DHT22;15182;48.174;11.562;2023-12-20T14:41:24;9.90;95.20
27803;DHT22;15182;48.174;11.562;2023-12-20T14:43:52;9.90;95.20
27803;DHT22;15182;48.174;11.562;2023-12-20T14:46:21;9.90;95.10
27803;DHT22;15182;48.174;11.562;2023-12-20T14:48:49;9.90;95.10
27803;DHT22;15182;48.174;11.562;2023-12-20T14:51:17;9.90;95.10
27803;DHT22;15182;48.174;11.562;2023-12-20T14:53:44;9.90;95.00
27803;DHT22;15182;48.174;11.562;2023-12-20T14:56:13;9.90;95.20
27803;DHT22;15182;48.174;11.562;2023-12-20T14:58:42;9.80;94.90
27803;DHT22;15182;48.174;11.562;2023-12-20T15:01:10;9.80;94.90
27803;DHT22;15182;48.174;11.562;2023-12-20T15:03:39;9.80;94.80
27803;DHT22;15182;48.174;11.562;2023-12-20T15:06:07;9.80;94.80
27803;DHT22;15182;48.174;11.562;2023-12-20T15:08:37;9.80;94.70
27803;DHT22;15182;48.174;11.562;2023-12-20T15:11:05;9.80;94.70
27803;DHT22;15182;48.174;11.562;2023-12-20T15:13:33;9.80;94.60
27803;DHT22;15182;48.174;11.562;2023-12-20T15:16:01;9.70;94.60
27803;DHT22;15182;48.174;11.562;2023-12-20T15:18:30;9.70;94.80
27803;DHT22;15182;48.174;11.562;2023-12-20T15:20:59;9.70;94.40
27803;DHT22;15182;48.174;11.562;2023-12-20T15:23:27;9.70;94.40
27803;DHT22;15182;48.174;11.562;2023-12-20T15:25:56;9.60;94.30
27803;DHT22;15182;48.174;11.562;2023-12-20T15:28:24;9.60;94.30
27803;DHT22;15182;48.174;11.562;2023-12-20T15:30:52;9.60;94.30